ログインしてさらにmixiを楽しもう

コメントを投稿して情報交換!
更新通知を受け取って、最新情報をゲット!

ホーム > コミュニティ > サークル、ゼミ > RJCCのMETAR・TAF 愛好会 > トピック一覧 > 【資料編】日々のMETAR 2...

RJCCのMETAR・TAF 愛好会コミュの【資料編】日々のMETAR 2018年12月01日〜2018年12月31日分

  • mixiチェック
  • このエントリーをはてなブックマークに追加

コミュ内全体

記録できた日々のMETAR報を貼っていきます。
時々データ抜けのあることがあります。
収集元でデータの欠落がある場合もありますのであくまで参考に願います。
(気が付いた部分は手修正をしてある場合もあります)

また、資料編ですのでお気づきな点や雑談は↓
http://mixi.jp/view_bbs.pl?id=49275149&comm_id=4753062
↑こちらへどうぞ お願いします

2018年12月01日 00h (UTC)〜 12月31日 24h(UTC) コメントNo 937〜


2009年12月26日〜2010年12月31日分の分は↓
http://mixi.jp/view_bbs.pl?id=51133430&comm_id=4753062
2011年01月01日〜2011年12月31日分の分は↓
http://mixi.jp/view_bbs.pl?id=59038880&comm_id=4753062
2012年01月01日〜2012年12月31日分の分は↓
http://mixi.jp/view_bbs.pl?id=67034312&comm_id=4753062
2013年01月01日〜2013年12月31日分の分は↓
http://mixi.jp/view_bbs.pl?id=72710304&comm_id=4753062
2014年01月01日〜2014年12月31日分の分は↓
http://mixi.jp/view_bbs.pl?id=75482778&comm_id=4753062
2015年01月01日〜2015年12月16日分の分は↓
http://mixi.jp/view_bbs.pl?id=77499256&comm_id=4753062
2015年12月17日〜2015年12月31日分の分は↓
http://mixi.jp/view_bbs.pl?id=79198706&comm_id=4753062
2016年01月01日〜2016年11月30日分の分は↓
http://mixi.jp/view_bbs.pl?comm_id=4753062&id=79198682
2016年12月01日〜2016年12月31日分の分は↓
http://mixi.jp/view_bbs.pl?comm_id=4753062&id=81180137
2017年12月01日〜2017年12月31日分の分は↓
http://mixi.jp/view_bbs.pl?comm_id=4753062&id=81442107
2018年01月01日〜2018年11月30日分の分は↓
http://mixi.jp/view_bbs.pl?comm_id=4753062&id=84852214

コメント(26)

2018年12月01日00-24UTC 新千歳空港METAR -1

RJCC 010000Z 03002KT 9999 FEW015 BKN080 BKN/// M01/M05 Q1015 RMK 1ST015 6AC080 A2997
RJCC 010030Z VRB02KT 9999 FEW020 BKN080 BKN/// M00/M05 Q1014 RMK 1CU020 6AC080 A2996
RJCC 010100Z 35006KT 9999 FEW020 BKN080 01/M05 Q1014 RMK 1CU020 7AC080 A2996
RJCC 010130Z 35011KT 9999 FEW020 BKN080 01/M05 Q1014 RMK 1CU020 7AC080 A2996
RJCC 010200Z 36012KT 9999 -SHSN FEW020 SCT030 BKN080 01/M04 Q1015 RMK 1CU020 4CU030 7AC080 A2997
RJCC 010230Z 35013KT 9999 -SHSN FEW008 BKN012 BKN030 01/M03 Q1014 RMK 1ST008 5ST012 7CU030 A2997
RJCC 010300Z 35016KT 9999 -SHSN FEW008 SCT030 BKN060 01/M04 Q1014 RMK 1ST008 3CU030 7CU060 A2997
RJCC 010308Z 35017G28KT 9999 -SHSN FEW008 SCT030 BKN060 01/M04 Q1014 RMK 1ST008 3CU030 7CU060 A2997
RJCC 010330Z 35016KT 9999 -SHSN FEW010 SCT050 BKN070 01/M04 Q1015 RMK 1ST010 3CU050 7AC070 A2997
RJCC 010400Z 35016KT 9999 FEW010 SCT060 BKN080 01/M05 Q1015 RMK 1ST010 3CU060 6AC080 A2998
RJCC 010418Z 34015G28KT 300V360 9999 FEW010 SCT060 BKN100 02/M05 Q1015 RMK 1ST010 3CU060 5AC100 A2997
RJCC 010430Z 33020KT 9999 FEW010 SCT060 02/M07 Q1015 RMK 1ST010 3CU060 A2998
RJCC 010500Z 35018KT 9999 -SHSN FEW010 SCT030 01/M06 Q1016 RMK 1ST010 3CU030 A3001 P/RR
RJCC 010530Z 33014KT 290V360 9999 FEW010 SCT030 01/M06 Q1016 RMK 1ST010 3CU030 A3003
RJCC 010540Z 34016G26KT 9999 FEW010 SCT030 01/M08 Q1016 RMK 1ST010 3CU030 A3003
RJCC 010600Z 34014KT 9999 FEW010 SCT030 M00/M06 Q1017 RMK 1ST010 3CU030 A3004
RJCC 010630Z 35014KT 9999 -SHSN FEW010 SCT030 M01/M05 Q1017 RMK 1ST010 3CU030 A3006 4000NE
RJCC 010639Z 35014KT 310V010 3100 -SHSN FEW010 BKN030 M00/M06 Q1018 RMK 1ST010 5CU030 A3007
RJCC 010700Z 34012KT 5000 -SHSN FEW010 BKN050 M01/M06 Q1018 RMK 1ST010 5CU050 A3008 9999S-NW
RJCC 010730Z 34011KT 9999 -SHSN FEW010 SCT045 M02/M05 Q1019 RMK 1ST010 4CU045 A3010 5000N-NE
RJCC 010800Z 32008KT 9999 FEW010 SCT050 M01/M06 Q1019 RMK 1ST010 3CU050 A3010
RJCC 010830Z 35011KT 9999 -SHSN FEW010 SCT060 M02/M05 Q1020 RMK 1ST010 4CU060 A3013
-2
RJCC 010900Z 34008KT 9999 VCSH FEW010 SCT040 M02/M06 Q1020 RMK 1ST010 3CU040 A3014 SH E
RJCC 010930Z 35005KT 9999 VCSH FEW010 SCT040 M03/M06 Q1021 RMK 1ST010 3CU040 A3016 SH NE
RJCC 011000Z VRB02KT 9999 FEW010 SCT040 M04/M06 Q1021 RMK 1ST010 3CU040 A3018
RJCC 011030Z 02003KT 340V070 9999 FEW010 M04/M06 Q1022 RMK 1ST010 A3019
RJCC 011100Z 34006KT 9999 FEW010 M04/M06 Q1022 RMK 1ST010 A3020
RJCC 011130Z VRB02KT 9999 FEW010 BKN060 M03/M06 Q1023 RMK 1ST010 5CU060 A3021
RJCC 011200Z 08001KT 9999 FEW010 SCT060 M04/M05 Q1023 RMK 1ST010 3CU060 A3023
RJCC 011230Z VRB02KT 9999 FEW010 SCT050 M04/M05 Q1024 RMK 1ST010 3CU050 A3025
RJCC 011300Z VRB01KT 9999 FEW010 BKN060 M05/M06 Q1024 RMK 1ST010 6CU060 A3025
RJCC 011330Z 16003KT 9999 FEW010 BKN060 M05/M06 Q1024 RMK 1ST010 6CU060 A3026
RJCC 011400Z 12003KT 9999 FEW010 BKN060 M04/M05 Q1024 RMK 1ST010 6CU060 A3026
RJCC 011430Z 21003KT 9999 FEW015 BKN060 M06/M07 Q1025 RMK 1ST015 5CU060 A3027
RJCC 011500Z VRB02KT 9999 FEW015 M05/M07 Q1025 RMK 1ST015 A3027
RJCC 011530Z VRB01KT 9999 FEW015 SCT050 M06/M07 Q1025 RMK 1ST015 3CU050 A3027
RJCC 011600Z VRB01KT 9999 FEW015 SCT050 M06/M07 Q1025 RMK 1ST015 3CU050 A3028
RJCC 011630Z 20003KT 9999 FEW015 BKN050 M06/M07 Q1025 RMK 1ST015 5CU050 A3028
RJCC 011700Z 17003KT 120V220 9999 FEW015 BKN050 M05/M06 Q1025 RMK 1ST015 6CU050 A3029
RJCC 011730Z 21003KT 9999 FEW015 BKN050 M04/M06 Q1025 RMK 1ST015 6CU050 A3029
RJCC 011800Z 17004KT 140V200 9999 FEW015 BKN045 M04/M06 Q1026 RMK 1ST015 6CU045 A3030
RJCC 011830Z 17004KT 9999 FEW015 BKN050 M04/M07 Q1026 RMK 1ST015 5CU050 A3030
RJCC 011900Z VRB02KT 9999 FEW015 BKN050 M04/M07 Q1026 RMK 1ST015 6CU050 A3031
RJCC 011930Z 15003KT 120V180 9999 FEW015 BKN050 M04/M07 Q1026 RMK 1ST015 5CU050 A3031
-3
RJCC 012000Z 16003KT 110V180 9999 FEW015 SCT050 M05/M08 Q1026 RMK 1ST015 3CU050 A3031
RJCC 012030Z 16001KT 9999 FEW015 M05/M07 Q1026 RMK 1ST015 A3031
RJCC 012100Z 17003KT 9999 FEW015 M06/M08 Q1026 RMK 1ST015 A3032
RJCC 012130Z 18002KT 9999 FEW020 M06/M08 Q1027 RMK 1CU020 A3033
RJCC 012200Z 18003KT 9999 FEW020 M07/M09 Q1027 RMK 1CU020 A3034
RJCC 012230Z 17003KT 9999 FEW030 M06/M08 Q1027 RMK 1CU030 A3035
RJCC 012300Z 19003KT 9999 FEW030 M04/M06 Q1027 RMK 1CU030 A3035
RJCC 012330Z 17004KT 9999 FEW030 M02/M05 Q1027 RMK 1CU030 A3035
2018年12月02日00-24UTC 新千歳空港METAR -1

RJCC 020000Z 15004KT 120V180 9999 FEW030 M00/M05 Q1027 RMK 1CU030 A3035
RJCC 020030Z 16005KT 9999 FEW030 01/M04 Q1027 RMK 1CU030 A3035
RJCC 020100Z 13005KT 9999 FEW030 03/M04 Q1027 RMK 1CU030 A3035
RJCC 020130Z 16005KT 140V210 9999 FEW030 04/M04 Q1027 RMK 1CU030 A3035
RJCC 020200Z 15006KT 120V190 9999 FEW030 05/M04 Q1027 RMK 1CU030 A3035
RJCC 020230Z 18006KT 130V220 9999 FEW030 06/M05 Q1027 RMK 1CU030 A3033
RJCC 020300Z 17007KT 130V210 9999 FEW030 07/M05 Q1026 RMK 1CU030 A3032
RJCC 020330Z 20007KT 160V250 9999 FEW030 07/M05 Q1026 RMK 1CU030 A3031
RJCC 020400Z 21008KT 160V240 9999 FEW030 07/M07 Q1026 RMK 1CU030 A3031
RJCC 020430Z 20008KT 160V240 9999 FEW030 07/M06 Q1026 RMK 1CU030 A3031
RJCC 020500Z 20009KT 9999 FEW030 07/M06 Q1026 RMK 1CU030 A3031
RJCC 020530Z 18010KT 9999 FEW030 07/M06 Q1026 RMK 1CU030 A3030
RJCC 020600Z 20009KT 9999 FEW030 07/M06 Q1026 RMK 1CU030 A3030
RJCC 020630Z 21008KT 9999 FEW030 06/M06 Q1026 RMK 1CU030 A3030
RJCC 020700Z 22008KT 9999 FEW030 05/M05 Q1026 RMK 1CU030 A3030
RJCC 020730Z 19006KT 9999 FEW030 03/M06 Q1026 RMK 1CU030 A3030
RJCC 020800Z 17006KT 9999 FEW030 02/M05 Q1026 RMK 1CU030 A3031
RJCC 020830Z 17006KT 9999 FEW030 03/M05 Q1026 RMK 1CU030 A3031
RJCC 020900Z 18007KT 9999 FEW030 02/M04 Q1026 RMK 1CU030 A3031
RJCC 020930Z 18006KT 9999 FEW030 01/M05 Q1026 RMK 1CU030 A3031
RJCC 021000Z 12003KT 070V170 9999 FEW030 00/M05 Q1026 RMK 1CU030 A3032
RJCC 021030Z 14003KT 9999 FEW030 M00/M05 Q1026 RMK 1CU030 A3031
RJCC 021100Z 12004KT 9999 FEW030 M00/M03 Q1026 RMK 1CU030 A3031
RJCC 021130Z 14005KT 9999 FEW030 01/M04 Q1026 RMK 1CU030 A3030
RJCC 021200Z 17004KT 9999 FEW030 M02/M05 Q1026 RMK 1CU030 A3030
RJCC 021230Z 17003KT 9999 FEW030 M01/M04 Q1026 RMK 1CU030 A3030
RJCC 021300Z 17004KT 9999 FEW030 M02/M04 Q1025 RMK 1CU030 A3029
RJCC 021330Z VRB02KT 9999 FEW030 M03/M05 Q1025 RMK 1CU030 A3029
RJCC 021400Z 16002KT 9999 FEW030 M03/M06 Q1026 RMK 1CU030 A3030
-2
RJCC 021430Z 15007KT 9999 FEW030 M03/M05 Q1025 RMK 1CU030 A3029
RJCC 021500Z 15004KT 9999 FEW030 M02/M04 Q1025 RMK 1CU030 A3029
RJCC 021530Z 12004KT 9999 FEW030 SCT/// M02/M04 Q1025 RMK 1CU030 A3029
RJCC 021600Z 16006KT 9999 FEW030 BKN/// M02/M04 Q1025 RMK 1CU030 A3029
RJCC 021630Z VRB02KT 9999 FEW030 BKN/// M02/M03 Q1025 RMK 1CU030 A3029
RJCC 021700Z 35004KT 9999 FEW030 SCT170 BKN/// M02/M03 Q1025 RMK 1CU030 3AC170 A3028
RJCC 021730Z VRB02KT 9999 FEW030 SCT170 BKN/// M02/M03 Q1025 RMK 1CU030 4AC170 A3028
RJCC 021800Z 33004KT 9999 FEW030 BKN160 BKN/// M02/M04 Q1025 RMK 1CU030 5AC160 A3028
RJCC 021830Z VRB01KT 9999 FEW030 BKN140 M02/M03 Q1025 RMK 1CU030 7AC140 A3028
RJCC 021900Z 23003KT 9999 FEW030 BKN140 M02/M03 Q1025 RMK 1CU030 7AC140 A3029
RJCC 021930Z VRB01KT 9999 FEW030 BKN140 BKN/// M02/M03 Q1025 RMK 1CU030 5AC140 A3028
RJCC 022000Z 17003KT 9999 FEW030 BKN140 BKN/// M02/M03 Q1025 RMK 1CU030 5AC140 A3028
RJCC 022030Z 17003KT 9999 FEW030 BKN140 BKN/// M01/M03 Q1025 RMK 1CU030 5AC140 A3027
RJCC 022100Z 18004KT 9999 FEW030 BKN140 BKN/// M01/M02 Q1025 RMK 1CU030 5AC140 A3027
RJCC 022130Z 18003KT 9999 FEW030 BKN140 BKN/// M01/M02 Q1025 RMK 1CU030 5AC140 A3027
RJCC 022200Z 16004KT 9999 FEW030 SCT140 BKN/// M01/M03 Q1024 RMK 1CU030 4AC140 A3026
RJCC 022230Z 16004KT 9999 FEW030 SCT130 BKN/// M00/M02 Q1024 RMK 1CU030 4AC130 A3026
RJCC 022300Z 17004KT 9999 FEW030 SCT/// 01/M01 Q1024 RMK 1CU030 A3026
RJCC 022330Z 18003KT 9999 FEW030 03/M00 Q1024 RMK 1CU030 A3026
2018年12月03日00-24UTC 新千歳空港METAR

RJCC 030000Z 16003KT 9999 FEW030 04/M00 Q1025 RMK 1CU030 A3027
RJCC 030030Z 14005KT 9999 FEW030 06/01 Q1024 RMK 1CU030 A3026
RJCC 030100Z 14008KT 9999 FEW040 08/01 Q1024 RMK 1CU040 A3026
RJCC 030130Z 15009KT 9999 FEW040 09/01 Q1024 RMK 1CU040 A3025
RJCC 030200Z 15010KT 9999 FEW025 10/02 Q1024 RMK 1CU025 A3024
RJCC 030230Z 16009KT 9999 FEW030 10/03 Q1024 RMK 1CU030 A3024
RJCC 030300Z 16011KT 9999 FEW030 10/03 Q1023 RMK 1CU030 A3023
RJCC 030330Z 17011KT 9999 FEW030 10/03 Q1023 RMK 1CU030 A3023
RJCC 030400Z 15010KT 9999 FEW030 10/03 Q1023 RMK 1CU030 A3023
RJCC 030430Z 18010KT 9999 FEW030 11/03 Q1023 RMK 1CU030 A3023
RJCC 030500Z 17009KT 9999 FEW030 10/03 Q1023 RMK 1CU030 A3023
RJCC 030530Z 17008KT 9999 FEW030 10/03 Q1023 RMK 1CU030 A3023
RJCC 030600Z 17009KT 9999 FEW030 09/04 Q1023 RMK 1CU030 A3021
RJCC 030630Z 16007KT 9999 FEW030 08/03 Q1023 RMK 1CU030 A3022
RJCC 030700Z 15004KT 9999 FEW030 07/02 Q1023 RMK 1CU030 A3022
RJCC 030730Z 13003KT 9999 FEW030 05/03 Q1023 RMK 1CU030 A3022
RJCC 030800Z 15002KT 9999 FEW030 06/04 Q1023 RMK 1CU030 A3021
RJCC 030830Z VRB02KT 9999 FEW030 04/02 Q1023 RMK 1CU030 A3021
RJCC 030900Z VRB02KT 9999 FEW030 04/02 Q1023 RMK 1CU030 A3022
RJCC 030930Z 13003KT 9999 FEW030 02/01 Q1023 RMK 1CU030 A3021
RJCC 031000Z 15003KT 110V170 9999 FEW030 01/00 Q1022 RMK 1CU030 A3020
RJCC 031030Z 17001KT 9999 FEW030 01/01 Q1022 RMK 1CU030 A3020
RJCC 031100Z 18004KT 9999 FEW030 00/M01 Q1022 RMK 1CU030 A3018
RJCC 031130Z 19005KT 9999 FEW030 00/M00 Q1022 RMK 1CU030 A3018
RJCC 031200Z 17007KT 9999 FEW030 00/M00 Q1021 RMK 1CU030 A3018
RJCC 031230Z 17007KT 9999 FEW030 01/M00 Q1021 RMK 1CU030 A3017
RJCC 031300Z 16006KT 9999 FEW030 00/M01 Q1021 RMK 1CU030 A3016
RJCC 031330Z 15005KT 9999 FEW030 01/00 Q1021 RMK 1CU030 A3015
RJCC 031400Z 15010KT 9999 FEW015 SCT/// 03/01 Q1020 RMK 1ST015 A3014
RJCC 031430Z 13011KT 9999 FEW015 BKN/// 04/01 Q1019 RMK 1ST015 A3012
-2
RJCC 031500Z 13008KT 9999 FEW015 SCT020 BKN/// 04/02 Q1019 RMK 1ST015 3CU020 A3010
RJCC 031530Z 11007KT 9999 FEW015 SCT020 BKN170 05/02 Q1019 RMK 1ST015 3CU020 5AC170 A3009
RJCC 031600Z 11005KT 100V160 9999 FEW015 SCT030 BKN170 07/03 Q1019 RMK 1ST015 3CU030 5AC170 A3010
RJCC 031630Z 14010KT 9999 FEW015 SCT030 BKN170 07/03 Q1018 RMK 1ST015 3CU030 6AC170 A3007
RJCC 031700Z 14008KT 9999 FEW015 SCT030 BKN170 07/03 Q1017 RMK 1ST015 3CU030 6AC170 A3006
RJCC 031730Z 15009KT 9999 -SHRA FEW015 BKN020 BKN050 07/04 Q1017 RMK 1ST015 5CU020 6CU050 A3003
RJCC 031800Z 15010KT 9999 -SHRA FEW015 SCT020 BKN120 07/03 Q1016 RMK 1ST015 4CU020 6AC120 A3002
RJCC 031830Z 16014KT 9999 FEW015 SCT020 BKN070 07/04 Q1016 RMK 1ST015 3CU020 6AC070 A3000
RJCC 031900Z 16016KT 9999 -SHRA FEW015 SCT025 BKN050 07/04 Q1015 RMK 1ST015 3CU025 6CU050 A3000
RJCC 031930Z 14015KT 9999 -SHRA FEW015 SCT025 BKN050 08/05 Q1014 RMK 1ST015 3CU025 5CU050 A2996 P/FR
RJCC 032000Z 14013KT 9999 -SHRA FEW010 BKN015 BKN040 08/06 Q1013 RMK 1ST010 5ST015 6CU040 A2994
RJCC 032030Z 13011KT 6000 -SHRA FEW008 BKN012 BKN025 08/06 Q1013 RMK 1ST008 5ST012 6CU025 A2994
RJCC 032100Z 13012KT 5000 -SHRA BR FEW008 BKN012 BKN020 08/07 Q1013 RMK 1ST008 5ST012 6CU020 A2993
RJCC 032130Z 13012KT 6000 -SHRA FEW008 BKN012 BKN020 08/07 Q1013 RMK 1ST008 5ST012 6CU020 A2994
RJCC 032142Z 14012KT 4900 -SHRA BR FEW008 BKN012 BKN020 08/07 Q1013 RMK 1ST008 5ST012 6CU020 A2993
RJCC 032200Z 15017KT 3200 -SHRA BR FEW008 SCT012 BKN030 08/07 Q1013 RMK 1ST008 3ST012 6CU030 A2992
RJCC 032230Z 15019KT 4500 -SHRA BR FEW008 SCT012 BKN030 08/07 Q1013 RMK 1ST008 3ST012 5CU030 A2991
RJCC 032300Z 14018KT 4000 -SHRA BR FEW008 SCT020 BKN030 09/08 Q1012 RMK 1ST008 3CU020 6CU030 A2990 8000NE
RJCC 032330Z 15018KT 5000 -SHRA BR FEW006 SCT020 BKN030 09/08 Q1012 RMK 1ST006 3CU020 5CU030 A2990
2018年12月04日00-24UTC 新千歳空港METAR -1

RJCC 040000Z 16015KT 7000 -SHRA FEW006 SCT015 BKN030 10/09 Q1011 RMK 1ST006 3ST015 5CU030 A2988
RJCC 040030Z 16018KT 7000 -SHRA FEW004 SCT020 BKN040 11/09 Q1011 RMK 1ST004 3CU020 6CU040 A2987
RJCC 040100Z 16017KT 9999 -SHRA FEW004 SCT020 BKN030 11/09 Q1010 RMK 1ST004 4CU020 5CU030 A2985
RJCC 040130Z 16015KT 9999 -SHRA FEW004 BKN020 11/09 Q1010 RMK 1ST004 7CU020 A2983
RJCC 040200Z 15012KT 7000 -SHRA FEW004 BKN020 11/10 Q1009 RMK 1ST004 7CU020 A2982
RJCC 040230Z 16016KT 5000 -SHRA BR FEW005 BKN020 11/10 Q1009 RMK 1ST005 7CU020 A2980
RJCC 040300Z 16017KT 6000 -SHRA FEW005 BKN020 BKN040 11/10 Q1008 RMK 1ST005 5CU020 7CU040 A2978
RJCC 040330Z 16016KT 9999 -SHRA FEW005 BKN020 BKN050 12/10 Q1007 RMK 1ST005 5CU020 7CU050 A2975
RJCC 040400Z 15010KT 9999 -SHRA FEW005 BKN018 12/11 Q1007 RMK 1ST005 7ST018 A2975
RJCC 040430Z 15008KT 7000 -SHRA FEW005 BKN018 12/11 Q1007 RMK 1ST005 7ST018 A2974
RJCC 040500Z 14009KT 8000 -SHRA FEW005 BKN008 BKN013 12/11 Q1006 RMK 1ST005 5ST008 7ST013 A2973
RJCC 040530Z 14010KT 5000 -SHRA BR FEW005 BKN007 BKN013 12/11 Q1006 RMK 1ST005 6ST007 7ST013 A2971
RJCC 040600Z 14008KT 8000 -SHRA FEW004 BKN006 12/11 Q1006 RMK 1ST004 7ST006 A2972
RJCC 040630Z 14007KT 8000 -SHRA FEW004 BKN006 BKN008 12/11 Q1006 RMK 1ST004 5ST006 7ST008 A2971
RJCC 040700Z 13007KT 8000 -SHRA FEW004 SCT006 BKN008 12/11 Q1005 RMK 1ST004 3ST006 7ST008 A2969
RJCC 040730Z 13008KT 8000 -SHRA FEW005 BKN008 12/11 Q1005 RMK 1ST005 7ST008 A2968
RJCC 040800Z 14007KT 9999 -SHRA FEW005 BKN008 12/11 Q1004 RMK 1ST005 7ST008 A2967
RJCC 040830Z 21004KT 8000 -SHRA FEW005 BKN007 12/11 Q1004 RMK 1ST005 7ST007 A2967
RJCC 040900Z 26005KT 200V300 8000 -SHRA FEW005 BKN007 12/11 Q1004 RMK 2ST005 7ST007 A2967
RJCC 040924Z 30007KT 270V340 4900 -SHRA BR FEW004 BKN006 12/11 Q1004 RMK 2ST004 7ST006 A2967
-2
RJCC 040930Z 32012KT 4000 -SHRA BR FEW003 BKN005 BKN007 11/11 Q1004 RMK 1ST003 5ST005 7ST007 A2967
RJCC 040941Z 35012KT 5000 -SHRA BR FEW003 SCT006 BKN010 11/10 Q1004 RMK 1ST003 3ST006 7ST010 A2966
RJCC 041000Z 36009KT 8000 -SHRA FEW003 BKN005 BKN008 10/09 Q1004 RMK 1ST003 5ST005 7ST008 A2965
RJCC 041007Z 36010KT 6000 -SHRA FEW003 BKN004 BKN005 10/09 Q1003 RMK 1ST003 5ST004 6ST005 A2964
RJCC 041030Z 36012KT 4500 -SHRA BR FEW003 BKN004 BKN005 10/09 Q1003 RMK 1ST003 5ST004 6ST005 A2964
RJCC 041041Z 36013KT 4500 SHRA BR FEW003 BKN004 BKN005 10/09 Q1003 RMK 1ST003 6ST004 7ST005 A2964
RJCC 041100Z 36011KT 4500 SHRA BR FEW003 SCT004 BKN005 09/09 Q1004 RMK 1ST003 4ST004 6ST005 A2965
RJCC 041130Z 36010KT 4000 SHRA BR FEW003 SCT005 BKN006 09/08 Q1004 RMK 1ST003 3ST005 6ST006 A2966
RJCC 041200Z 35012KT 5000 SHRA BR FEW003 BKN006 BKN008 09/08 Q1004 RMK 1ST003 5ST006 6ST008 A2967
RJCC 041230Z 36012KT 9999 -SHRA FEW004 SCT006 BKN080 08/08 Q1003 RMK 1ST004 4ST006 7AC080 A2964
RJCC 041300Z 35012KT 9999 -SHRA FEW004 SCT006 BKN080 08/08 Q1004 RMK 1ST004 3ST006 7AC080 A2965
RJCC 041330Z 34015KT 9999 -SHRA FEW004 SCT006 BKN020 08/07 Q1004 RMK 1ST004 3ST006 6CU020 A2966
RJCC 041400Z 33013KT 9999 FEW005 SCT020 BKN060 08/07 Q1004 RMK 1ST005 3CU020 6CU060 A2966
RJCC 041430Z 33013KT 9999 FEW005 SCT012 08/07 Q1005 RMK 1ST005 4ST012 A2969
RJCC 041500Z 35010KT 9999 FEW005 SCT008 BKN012 08/07 Q1005 RMK 1ST005 3ST008 5ST012 A2969
RJCC 041530Z 33013KT 9999 FEW005 SCT010 08/07 Q1006 RMK 1ST005 3ST010 A2971
RJCC 041600Z 35011KT 9999 FEW005 BKN040 08/06 Q1006 RMK 1ST005 5CU040 A2972
RJCC 041630Z 34011KT 9999 FEW005 BKN040 08/06 Q1007 RMK 1ST005 7CU040 A2974
RJCC 041700Z 34012KT 9999 FEW005 BKN040 08/06 Q1007 RMK 1ST005 7CU040 A2976
RJCC 041730Z 35011KT 9999 FEW005 BKN040 07/06 Q1007 RMK 1ST005 7CU040 A2976
-3
RJCC 041800Z 34011KT 9999 FEW006 SCT035 BKN045 07/05 Q1008 RMK 1ST006 3CU035 7CU045 A2977
RJCC 041830Z 35011KT 9999 FEW010 SCT045 06/04 Q1008 RMK 1ST010 3CU045 A2978
RJCC 041900Z 35009KT 9999 FEW010 SCT050 05/03 Q1009 RMK 1ST010 3CU050 A2979
RJCC 041930Z 02010KT 9999 FEW010 BKN035 07/04 Q1009 RMK 1ST010 6CU035 A2982
RJCC 042000Z 34010KT 9999 -SHRA FEW010 BKN015 BKN030 06/03 Q1010 RMK 1ST010 5ST015 7CU030 A2983
RJCC 042030Z 34016KT 9999 -SHRA FEW008 SCT015 BKN035 05/03 Q1010 RMK 1ST008 4ST015 7CU035 A2985
RJCC 042100Z 35011KT 9999 -SHRA FEW008 BKN045 BKN080 05/03 Q1011 RMK 1ST008 5CU045 6AC080 A2988
RJCC 042130Z 36011KT 9999 -SHRA FEW010 BKN035 05/03 Q1011 RMK 1ST010 5CU035 A2987
RJCC 042200Z 33012KT 9999 -SHRA FEW010 BKN030 BKN070 05/02 Q1012 RMK 1ST010 5CU030 6AC070 A2990
RJCC 042230Z 33006KT 300V010 9999 FEW010 SCT050 04/02 Q1013 RMK 1ST010 3CU050 A2991
RJCC 042300Z VRB03KT 9999 FEW015 BKN050 05/02 Q1013 RMK 2ST015 5CU050 A2992
RJCC 042323Z 34013KT 9999 -SHRA FEW015 BKN050 05/M01 Q1014 RMK 1ST015 6CU050 A2994
RJCC 042330Z 32014KT 9999 -SHRASN FEW015 BKN050 05/M00 Q1014 RMK 1ST015 6CU050 A2995
RJCC 042337Z 32017G27KT 9999 -SHRA FEW015 BKN045 05/M01 Q1014 RMK 1ST015 5CU045 A2995
2018年12月05日00-24UTC 新千歳空港METAR -1

RJCC 050000Z 33016KT 9999 -SHRA FEW015 BKN050 04/M00 Q1014 RMK 1ST015 6CU050 A2995
RJCC 050030Z 32018KT 9999 -SHRA FEW015 BKN050 04/M02 Q1014 RMK 1ST015 5CU050 A2997
RJCC 050100Z 32017KT 9999 FEW015 SCT050 04/M06 Q1015 RMK 1ST015 4CU050 A2997
RJCC 050130Z 29017KT 9999 FEW015 SCT045 03/M07 Q1015 RMK 1ST015 4CU045 A2998
RJCC 050145Z 31016G26KT 9999 FEW015 SCT045 03/M07 Q1015 RMK 1ST015 4CU045 A2999
RJCC 050200Z 30018KT 9999 FEW015 SCT045 03/M08 Q1015 RMK 1ST015 4CU045 A2999
RJCC 050230Z 27014KT 9999 FEW015 BKN050 04/M08 Q1015 RMK 1ST015 6CU050 A3000
RJCC 050300Z 31013KT 9999 FEW015 BKN050 05/M08 Q1016 RMK 1ST015 6CU050 A3000
RJCC 050330Z 33019KT 9999 -SHSN FEW015 BKN050 04/M06 Q1016 RMK 1ST015 6CU050 A3002
RJCC 050400Z 34011KT 300V360 9999 -SHSN FEW015 BKN050 03/M06 Q1016 RMK 1ST015 6CU050 A3003
RJCC 050430Z 36011KT 9999 -SHSN FEW015 BKN040 02/M04 Q1017 RMK 1ST015 6CU040 A3005
RJCC 050500Z 32017KT 9999 -SHSN FEW015 BKN040 02/M07 Q1018 RMK 1ST015 5CU040 A3006
RJCC 050530Z 32018KT 9999 FEW015 BKN045 02/M09 Q1018 RMK 1ST015 5CU045 A3008
RJCC 050600Z 33014KT 9999 FEW015 SCT050 01/M09 Q1019 RMK 1ST015 3CU050 A3010
RJCC 050630Z 33014KT 9999 FEW015 SCT040 01/M09 Q1020 RMK 1ST015 3CU040 A3013
RJCC 050700Z 33014KT 9999 FEW015 SCT040 00/M09 Q1021 RMK 1ST015 4CU040 A3015
RJCC 050730Z 33014KT 9999 FEW015 SCT040 M00/M10 Q1021 RMK 1ST015 3CU040 A3016
RJCC 050800Z 32014KT 9999 FEW015 SCT040 M01/M10 Q1021 RMK 1ST015 4CU040 A3018
RJCC 050830Z 32012KT 9999 FEW015 SCT040 M01/M10 Q1022 RMK 1ST015 4CU040 A3019
RJCC 050900Z 32010KT 9999 FEW015 BKN040 M01/M10 Q1022 RMK 1ST015 5CU040 A3020
RJCC 050930Z 33006KT 9999 FEW015 SCT050 M01/M10 Q1022 RMK 1ST015 3CU050 A3021
RJCC 051000Z 35006KT 9999 FEW015 SCT050 M01/M10 Q1023 RMK 1ST015 3CU050 A3021
RJCC 051030Z 34006KT 9999 FEW015 SCT050 M01/M10 Q1023 RMK 1ST015 3CU050 A3023
-2
RJCC 051100Z 33006KT 9999 FEW015 BKN050 M02/M09 Q1023 RMK 1ST015 5CU050 A3023
RJCC 051130Z 21003KT 170V270 9999 FEW015 BKN050 M03/M08 Q1023 RMK 1ST015 5CU050 A3023
RJCC 051200Z 18003KT 150V240 9999 FEW015 BKN050 M02/M09 Q1024 RMK 1ST015 6CU050 A3024
RJCC 051230Z 15004KT 9999 FEW015 BKN045 M03/M07 Q1024 RMK 1ST015 7CU045 A3024
RJCC 051300Z VRB01KT 9999 FEW015 BKN045 M02/M08 Q1024 RMK 1ST015 7CU045 A3025
RJCC 051330Z VRB01KT 9999 FEW015 BKN045 M03/M08 Q1024 RMK 1ST015 7CU045 A3025
RJCC 051400Z 08003KT 9999 FEW015 BKN050 M02/M08 Q1024 RMK 1ST015 7CU050 A3026
RJCC 051430Z VRB02KT 9999 FEW020 BKN050 M02/M08 Q1024 RMK 1CU020 5CU050 A3026
RJCC 051500Z 06005KT 9999 FEW020 BKN050 M02/M08 Q1024 RMK 1CU020 7CU050 A3026
RJCC 051530Z VRB01KT 9999 FEW020 BKN050 M02/M08 Q1025 RMK 1CU020 7CU050 A3027
RJCC 051600Z VRB02KT 9999 FEW020 BKN050 M02/M08 Q1025 RMK 1CU020 7CU050 A3028
RJCC 051630Z 11003KT 9999 FEW020 BKN050 M02/M07 Q1025 RMK 1CU020 7CU050 A3029
RJCC 051700Z VRB02KT 9999 FEW020 BKN050 M02/M07 Q1025 RMK 1CU020 7CU050 A3029
RJCC 051730Z 02003KT 9999 FEW020 SCT050 BKN060 M02/M07 Q1025 RMK 1CU020 3CU050 7CU060 A3028
RJCC 051800Z 06004KT 9999 -SHSN FEW020 SCT045 BKN060 M02/M07 Q1025 RMK 1CU020 4CU045 7CU060 A3028
RJCC 051830Z 03003KT 9999 FEW020 BKN050 M02/M07 Q1025 RMK 1CU020 7CU050 A3027
RJCC 051900Z 01002KT 9999 FEW020 SCT045 BKN060 M02/M07 Q1025 RMK 1CU020 3CU045 7CU060 A3028
RJCC 051930Z 35003KT 9999 -SHSN FEW020 SCT045 BKN060 M02/M07 Q1025 RMK 1CU020 4CU045 7CU060 A3027
RJCC 052000Z 35004KT 9999 -SHSN FEW020 SCT050 BKN060 M02/M06 Q1025 RMK 1CU020 3CU050 7CU060 A3027
RJCC 052030Z 36003KT 9999 -SHSN FEW020 BKN050 M02/M06 Q1025 RMK 1CU020 7CU050 A3028
RJCC 052100Z 03003KT 9999 FEW020 BKN050 M02/M07 Q1025 RMK 1CU020 7CU050 A3028
RJCC 052130Z 00000KT 9999 FEW020 BKN050 M02/M07 Q1026 RMK 1CU020 7CU050 A3030
-3
RJCC 052200Z 20002KT 9999 FEW020 BKN050 M02/M06 Q1026 RMK 1CU020 7CU050 A3031
RJCC 052230Z VRB02KT 9999 FEW030 BKN060 BKN/// M02/M06 Q1025 RMK 1CU030 6CU060 A3029
RJCC 052300Z VRB01KT 9999 FEW030 BKN120 BKN/// M02/M06 Q1025 RMK 1CU030 6AC120 A3028
RJCC 052330Z 21003KT 170V280 9999 FEW030 BKN120 M01/M06 Q1026 RMK 1CU030 7AC120 A3030
2018年12月06日00-24UTC 新千歳空港METAR -1

RJCC 060000Z VRB01KT 9999 FEW030 BKN120 M01/M07 Q1026 RMK 1CU030 7AC120 A3030
RJCC 060030Z VRB02KT 9999 FEW030 BKN120 M01/M07 Q1025 RMK 1CU030 7AC120 A3029
RJCC 060100Z 10003KT 060V130 9999 FEW030 BKN120 M01/M07 Q1025 RMK 1CU030 7AC120 A3027
RJCC 060130Z 13003KT 100V180 9999 FEW030 BKN140 BKN/// M00/M07 Q1024 RMK 1CU030 6AC140 A3025
RJCC 060200Z 14004KT 110V220 9999 FEW030 BKN150 BKN/// 00/M07 Q1023 RMK 1CU030 5AC150 A3023
RJCC 060230Z 13003KT 080V220 9999 FEW030 BKN150 BKN/// 00/M08 Q1023 RMK 1CU030 6AC150 A3021
RJCC 060300Z VRB02KT 9999 FEW030 BKN090 BKN150 00/M09 Q1023 RMK 1CU030 5AC090 7AC150 A3021
RJCC 060330Z VRB01KT 9999 FEW030 BKN090 00/M08 Q1022 RMK 1CU030 7AC090 A3020
RJCC 060400Z 04003KT 9999 FEW030 BKN090 01/M08 Q1021 RMK 1CU030 7AC090 A3018
RJCC 060430Z 05003KT 9999 FEW030 BKN080 01/M09 Q1021 RMK 1CU030 7AC080 A3017
RJCC 060500Z 04003KT 9999 FEW030 BKN060 00/M09 Q1021 RMK 1CU030 7CU060 A3017
RJCC 060530Z VRB02KT 9999 VCSH FEW020 BKN050 00/M09 Q1021 RMK 1CU020 7CU050 A3016 SH W
RJCC 060600Z 14005KT 9999 -SHSN FEW020 BKN050 M00/M08 Q1021 RMK 1CU020 7CU050 A3016
RJCC 060630Z 14005KT 120V190 9999 FEW020 BKN050 BKN100 M00/M07 Q1021 RMK 1CU020 5CU050 7AC100 A3015
RJCC 060700Z 15003KT 130V230 9999 FEW020 SCT050 BKN070 M01/M07 Q1021 RMK 1CU020 4CU050 7AC070 A3015
RJCC 060730Z VRB01KT 9999 FEW020 SCT050 BKN070 M00/M07 Q1020 RMK 1CU020 4CU050 7AC070 A3014
RJCC 060800Z 35003KT 9999 FEW020 SCT050 BKN070 M01/M06 Q1020 RMK 1CU020 4CU050 7AC070 A3013
RJCC 060830Z 36005KT 9999 FEW020 BKN070 M01/M06 Q1020 RMK 1CU020 7AC070 A3013
RJCC 060900Z 01006KT 9999 FEW020 SCT060 BKN070 M01/M07 Q1019 RMK 1CU020 4CU060 6AC070 A3012
RJCC 060930Z 02006KT 9999 FEW020 SCT050 BKN080 M01/M06 Q1019 RMK 1CU020 3CU050 6AC080 A3011
RJCC 061000Z 02005KT 9999 -SHSN FEW020 BKN080 M01/M05 Q1019 RMK 1CU020 7AC080 A3010
RJCC 061030Z 01006KT 9999 -SHSN FEW020 SCT050 BKN080 M01/M04 Q1018 RMK 2CU020 3CU050 7AC080 A3008
-2
RJCC 061100Z 01004KT 9999 -SHSN FEW025 SCT060 BKN080 M02/M04 Q1017 RMK 1CU025 3CU060 7AC080 A3005
RJCC 061130Z 36007KT 9999 FEW025 SCT080 BKN100 M02/M04 Q1017 RMK 1CU025 3AC080 7AC100 A3004
RJCC 061200Z 35006KT 9999 FEW025 SCT080 BKN100 M02/M04 Q1017 RMK 1CU025 3AC080 7AC100 A3003
RJCC 061230Z 35007KT 9999 FEW025 SCT030 BKN090 M01/M04 Q1016 RMK 1CU025 4CU030 7AC090 A3001
RJCC 061300Z 34008KT 9999 FEW025 BKN080 M01/M05 Q1015 RMK 1CU025 7AC080 A3000
RJCC 061330Z 34009KT 9999 FEW025 SCT050 BKN070 M01/M05 Q1015 RMK 1CU025 3CU050 7AC070 A2999
RJCC 061400Z 34009KT 9999 -SHSN FEW025 SCT060 BKN080 M02/M04 Q1015 RMK 1CU025 4CU060 7AC080 A2998
RJCC 061430Z 34008KT 9999 -SHSN FEW025 SCT060 BKN080 M02/M04 Q1015 RMK 1CU025 3CU060 7AC080 A2997
RJCC 061500Z 34010KT 9999 -SHSN FEW015 SCT060 BKN080 M02/M04 Q1014 RMK 1ST015 4CU060 7AC080 A2996
RJCC 061530Z 35009KT 9999 FEW015 SCT060 BKN080 M02/M04 Q1013 RMK 1ST015 3CU060 7AC080 A2994
RJCC 061600Z 34012KT 9999 -SHSN FEW015 SCT060 BKN080 M02/M05 Q1013 RMK 1ST015 3CU060 7AC080 A2994
RJCC 061630Z 34013KT 9999 -SHSN FEW015 SCT060 BKN080 M02/M05 Q1013 RMK 1ST015 3CU060 7AC080 A2992
RJCC 061700Z 34012KT 9999 FEW015 BKN080 M02/M05 Q1013 RMK 1ST015 7AC080 A2993
RJCC 061730Z 34011KT 9999 -SHSN FEW015 SCT050 BKN070 M02/M05 Q1013 RMK 1ST015 3CU050 7AC070 A2994
RJCC 061800Z 34011KT 9999 -SHSN FEW015 BKN050 M02/M05 Q1013 RMK 1ST015 7CU050 A2992
RJCC 061830Z 34012KT 9999 -SHSN FEW015 SCT050 BKN080 M02/M05 Q1013 RMK 1ST015 3CU050 7AC080 A2992
RJCC 061900Z 34011KT 9999 FEW015 BKN070 M02/M05 Q1012 RMK 1ST015 7AC070 A2991
RJCC 061930Z 34012KT 9999 FEW015 SCT060 BKN070 M02/M05 Q1012 RMK 1ST015 3CU060 6AC070 A2990
-3
RJCC 062000Z 34011KT 9999 FEW015 BKN080 M03/M05 Q1011 RMK 1ST015 6AC080 A2988
RJCC 062030Z 33013KT 9999 FEW015 SCT080 M03/M05 Q1011 RMK 1ST015 3AC080 A2987
RJCC 062100Z 33013KT 9999 FEW015 SCT080 M03/M05 Q1011 RMK 1ST015 3AC080 A2987
RJCC 062130Z 34012KT 9999 FEW015 BKN080 M03/M05 Q1010 RMK 1ST015 5AC080 A2985
RJCC 062200Z 34012KT 9999 FEW030 SCT080 BKN100 M03/M06 Q1010 RMK 1CU030 3AC080 5AC100 A2983
RJCC 062230Z 34011KT 9999 FEW030 SCT070 BKN090 M03/M06 Q1009 RMK 1CU030 3AC070 6AC090 A2981
RJCC 062300Z 33014KT 9999 FEW015 BKN070 M03/M06 Q1009 RMK 1ST015 6AC070 A2980
RJCC 062330Z 34015KT 9999 FEW015 BKN050 M03/M06 Q1008 RMK 1ST015 7CU050 A2977
2018年12月07日00-24UTC 新千歳空港METAR -1

RJCC 070000Z 35014KT 9999 -SHSN FEW015 BKN050 M02/M07 Q1008 RMK 1ST015 7CU050 A2977
RJCC 070017Z 35014KT 4900 -SHSN FEW010 BKN020 M02/M07 Q1008 RMK 1ST010 7CU020 A2977
RJCC 070022Z 35015KT 2500 -SHSN FEW005 BKN015 M02/M06 Q1008 RMK 1ST005 7ST015 A2977
RJCC 070025Z 35014KT 2000 -SHSN FEW005 BKN015 M03/M06 Q1008 RMK 1ST005 7ST015 A2977
RJCC 070030Z 35013KT 1400 R01L/P2000N R01R/P2000N -SHSN FEW005 BKN012 M03/M06 Q1008 RMK 1ST005 7ST012 A2977
RJCC 070033Z 35013KT 0900 R01L/P2000N R01R/P2000N SHSN FEW005 BKN012 M03/M05 Q1007 RMK 1ST005 7ST012 A2976
RJCC 070045Z 35013KT 0600 R01L/P2000N R01R/P2000N SHSN VV006 M03/M05 Q1007 RMK A2976
RJCC 070100Z 34015KT 0600 R01L/P2000N R01R/P2000N SHSN VV005 M03/M04 Q1007 RMK A2974
RJCC 070130Z 34017KT 0600 R01L/1300V2000U R01R/2000N SHSN VV005 M03/M04 Q1005 RMK A2970 P/FR
RJCC 070145Z 34017KT 0500 R01L/1300V1800N R01R/1500VP2000U SHSN VV004 M03/M04 Q1005 RMK A2969 P/FR
RJCC 070200Z 34017KT 0300 R01L/1000V1400U R01R/1900U SHSN VV003 M03/M04 Q1005 RMK A2969
RJCC 070230Z 35017KT 0300 R01L/1200U R01R/2000U SHSN VV003 M03/M04 Q1006 RMK A2972
RJCC 070300Z 35017KT 0400 R01L/1300N R01R/P2000N SHSN VV004 M03/M04 Q1006 RMK A2973
RJCC 070330Z 35016KT 0500 R01L/1200V1700U R01R/P2000N SHSN VV005 M03/M04 Q1006 RMK A2973
RJCC 070339Z 35017KT 1000 R01L/1600N R01R/P2000N -SHSN VV006 M03/M05 Q1006 RMK A2973
RJCC 070400Z 36016KT 1400 R01L/P2000N R01R/P2000N -SHSN VV006 M03/M04 Q1007 RMK A2974
RJCC 070418Z 36016KT 0900 R01L/2000D R01R/P2000N SHSN VV006 M03/M04 Q1007 RMK A2976
RJCC 070430Z 35015KT 0300 R01L/1300VP2000D R01R/P2000N SHSN VV003 M03/M04 Q1007 RMK A2976
RJCC 070500Z 36017KT 0300 R01L/1900N R01R/P2000N SHSN VV003 M03/M04 Q1008 RMK A2977
RJCC 070523Z 35020G31KT 0500 R01L/P2000N R01R/P2000N SHSN VV005 M03/M04 Q1008 RMK A2977
RJCC 070530Z 35019G31KT 1000 R01L/P2000N R01R/P2000N -SHSN VV006 M03/M04 Q1008 RMK A2977
RJCC 070547Z 34020KT 0900 R01L/P2000N R01R/P2000N SHSN VV005 M03/M04 Q1008 RMK A2978
-2
RJCC 070600Z 35020KT 3500 R01L/2000N R01R/P2000N -SHSN BLSN FEW003 SCT008 BKN/// M03/M04 Q1008 RMK 1ST003 4ST008 A2979
RJCC 070630Z 36012KT 3500 -SHSN FEW005 BKN008 BKN010 M03/M04 Q1009 RMK 1ST005 5ST008 6ST010 A2980
RJCC 070642Z 35012KT 5000 -SHSN FEW005 SCT008 BKN010 M03/M04 Q1009 RMK 1ST005 4ST008 6ST010 A2980
RJCC 070700Z 35010KT 6000 -SHSN FEW005 SCT008 BKN015 M03/M04 Q1009 RMK 1ST005 3ST008 6ST015 A2982
RJCC 070725Z 34014KT 3000 -SHSN FEW005 SCT008 BKN015 M03/M04 Q1010 RMK 1ST005 4ST008 6ST015 A2983 8000S-W
RJCC 070730Z 34013KT 8000 -SHSN FEW005 SCT008 BKN015 M03/M04 Q1010 RMK 1ST005 4ST008 6ST015 A2984 4000E
RJCC 070800Z 36008KT 9999 -SHSN FEW010 SCT015 M04/M06 Q1010 RMK 1ST010 3ST015 A2984
RJCC 070830Z 02004KT 9999 FEW010 M05/M06 Q1010 RMK 1ST010 A2985
RJCC 070900Z 04004KT 9999 FEW010 M05/M06 Q1011 RMK 1ST010 A2986
RJCC 070930Z 32003KT 280V340 9999 FEW010 M05/M06 Q1011 RMK 1ST010 A2987
RJCC 071000Z 17005KT 150V220 9999 FEW010 M06/M06 Q1011 RMK 1ST010 A2987
RJCC 071030Z VRB01KT 9999 FEW010 BKN040 M06/M06 Q1012 RMK 1ST010 6CU040 A2989
RJCC 071100Z 01004KT 300V040 9999 -SHSN FEW010 BKN040 M06/M07 Q1012 RMK 1ST010 6CU040 A2990
RJCC 071130Z 07004KT 8000 -SHSN FEW010 SCT015 BKN040 M05/M07 Q1012 RMK 1ST010 3ST015 7CU040 A2991
RJCC 071200Z 05005KT 9999 -SHSN FEW010 BKN035 M04/M08 Q1013 RMK 1ST010 5CU035 A2991
RJCC 071230Z 03006KT 9999 FEW010 SCT035 M05/M09 Q1013 RMK 1ST010 3CU035 A2992
RJCC 071300Z 03004KT 9999 FEW010 SCT035 M06/M10 Q1013 RMK 1ST010 3CU035 A2993
RJCC 071330Z 18003KT 140V230 9999 FEW010 SCT035 BKN060 M08/M11 Q1014 RMK 1ST010 3CU035 5CU060 A2994
RJCC 071400Z 20004KT 150V250 9999 FEW010 SCT035 BKN050 M05/M11 Q1014 RMK 1ST010 3CU035 6CU050 A2995
RJCC 071430Z 22003KT 170V270 9999 FEW010 SCT035 BKN050 M05/M12 Q1014 RMK 1ST010 3CU035 5CU050 A2995
-3
RJCC 071500Z VRB03KT 9999 FEW010 SCT035 BKN050 M06/M11 Q1014 RMK 1ST010 3CU035 6CU050 A2994
RJCC 071530Z 22004KT 9999 FEW010 SCT035 BKN050 M07/M11 Q1014 RMK 1ST010 3CU035 6CU050 A2994
RJCC 071600Z 22003KT 160V240 9999 FEW010 SCT035 BKN050 M09/M12 Q1014 RMK 1ST010 3CU035 6CU050 A2995
RJCC 071630Z VRB01KT 9999 FEW010 SCT035 BKN050 M09/M10 Q1014 RMK 1ST010 3CU035 6CU050 A2995
RJCC 071700Z 09003KT 050V230 9999 -SHSN FEW010 SCT035 BKN050 M09/M11 Q1014 RMK 1ST010 3CU035 5CU050 A2996
RJCC 071730Z VRB01KT 9999 FEW010 SCT035 BKN050 M08/M10 Q1014 RMK 1ST010 3CU035 5CU050 A2996
RJCC 071800Z VRB02KT 9999 FEW010 BKN040 M09/M11 Q1014 RMK 1ST010 5CU040 A2996
RJCC 071830Z VRB01KT 9999 FEW010 SCT040 M09/M11 Q1014 RMK 1ST010 3CU040 A2997
RJCC 071900Z VRB01KT 9999 FEW010 BKN040 M10/M11 Q1014 RMK 1ST010 6CU040 A2997
RJCC 071930Z VRB01KT 9999 FEW010 BKN040 M10/M11 Q1014 RMK 1ST010 7CU040 A2997
RJCC 072000Z VRB02KT 9999 FEW010 BKN035 M09/M10 Q1015 RMK 1ST010 5CU035 A2997
RJCC 072030Z VRB02KT 9999 FEW010 SCT035 BKN050 M10/M11 Q1015 RMK 1ST010 3CU035 5CU050 A2997
RJCC 072100Z 21003KT 160V230 9999 FEW010 SCT030 BKN050 M10/M11 Q1015 RMK 1ST010 3CU030 5CU050 A2998
RJCC 072130Z VRB02KT 9999 FEW010 SCT030 M10/M11 Q1015 RMK 1ST010 3CU030 A2998
RJCC 072200Z 10002KT 9999 FEW010 SCT030 M10/M11 Q1015 RMK 1ST010 3CU030 A2999
RJCC 072230Z VRB02KT 9999 FEW010 SCT030 M11/M12 Q1015 RMK 1ST010 3CU030 A2999
RJCC 072300Z 16003KT 130V230 9999 FEW010 SCT030 M10/M11 Q1015 RMK 1ST010 4CU030 A3000
RJCC 072330Z 14004KT 090V220 9999 FEW010 BKN030 M07/M09 Q1015 RMK 1ST010 5CU030 A2999
2018年12月08日00-24UTC 新千歳空港METAR -1

RJCC 080000Z VRB01KT 9999 FEW010 BKN030 M06/M10 Q1015 RMK 1ST010 6CU030 A2999
RJCC 080030Z 05003KT 010V090 9999 -SHSN FEW010 BKN030 M05/M11 Q1015 RMK 1ST010 6CU030 A2999
RJCC 080100Z 04004KT 360V070 9999 -SHSN FEW010 BKN030 M05/M11 Q1015 RMK 1ST010 6CU030 A3000
RJCC 080130Z 02006KT 9999 -SHSN FEW010 BKN030 M05/M09 Q1015 RMK 1ST010 5CU030 A2998
RJCC 080200Z 03006KT 9999 FEW010 BKN030 M05/M10 Q1015 RMK 1ST010 5CU030 A2997
RJCC 080230Z 02005KT 9999 FEW010 BKN030 M04/M10 Q1014 RMK 1ST010 5CU030 A2996
RJCC 080300Z 02003KT 9999 FEW010 BKN050 M04/M11 Q1014 RMK 1ST010 5CU050 A2996
RJCC 080330Z VRB02KT 9999 -SHSN FEW010 BKN040 M04/M11 Q1014 RMK 1ST010 5CU040 A2995
RJCC 080400Z 06006KT 9999 FEW010 SCT040 M04/M11 Q1013 RMK 1ST010 4CU040 A2993
RJCC 080430Z 03003KT 350V070 9999 FEW010 SCT040 M04/M11 Q1013 RMK 1ST010 3CU040 A2993
RJCC 080500Z 34004KT 300V020 9999 FEW010 SCT040 M03/M11 Q1013 RMK 1ST010 3CU040 A2994
RJCC 080530Z 34005KT 290V010 9999 FEW010 SCT040 M04/M11 Q1013 RMK 1ST010 4CU040 A2993
RJCC 080600Z 33005KT 9999 FEW015 M04/M12 Q1013 RMK 1ST015 A2993
RJCC 080630Z 34004KT 300V040 9999 FEW015 M04/M12 Q1013 RMK 1ST015 A2993
RJCC 080700Z 32005KT 9999 FEW015 M04/M12 Q1013 RMK 1ST015 A2993
RJCC 080730Z 36007KT 9999 FEW015 M07/M13 Q1013 RMK 1ST015 A2994
RJCC 080800Z 34006KT 9999 FEW015 M06/M11 Q1014 RMK 1ST015 A2995
RJCC 080830Z 11003KT 9999 FEW015 M07/M11 Q1014 RMK 1ST015 A2994
RJCC 080900Z VRB01KT 9999 FEW015 M07/M11 Q1014 RMK 1ST015 A2995 MOD TURB OBS AT 0853Z NAVER BTN 12000FT AND 10000FT IN DES A320
RJCC 080930Z VRB01KT 9999 FEW015 M08/M12 Q1014 RMK 1ST015 A2995
RJCC 081000Z 00000KT 9999 FEW015 M09/M11 Q1014 RMK 1ST015 A2996
RJCC 081030Z VRB01KT 9999 FEW015 SCT070 M10/M12 Q1014 RMK 1ST015 3AC070 A2996
RJCC 081100Z 24005KT 190V260 9999 FEW015 BKN040 M10/M13 Q1014 RMK 1ST015 6CU040 A2997
RJCC 081130Z 35003KT 300V040 9999 FEW015 SCT030 M11/M14 Q1015 RMK 1ST015 3CU030 A2997
-2
RJCC 081200Z 02003KT 340V090 9999 FEW015 SCT030 M09/M12 Q1015 RMK 1ST015 3CU030 A2997
RJCC 081230Z VRB02KT 9999 FEW015 SCT030 M11/M13 Q1015 RMK 1ST015 3CU030 A2997
RJCC 081300Z 23003KT 190V260 9999 FEW015 M12/M14 Q1015 RMK 1ST015 A2998
RJCC 081330Z 08004KT 050V110 9999 FEW015 M13/M14 Q1015 RMK 1ST015 A2998
RJCC 081400Z 00000KT 9999 FEW015 M12/M13 Q1015 RMK 1ST015 A2999
RJCC 081430Z 07003KT 9999 FEW015 M14/M15 Q1015 RMK 1ST015 A2999
RJCC 081500Z VRB01KT 9999 FEW015 M14/M15 Q1015 RMK 1ST015 A2999
RJCC 081530Z VRB01KT 9999 FEW015 M15/M16 Q1015 RMK 1ST015 A3000
RJCC 081600Z VRB01KT 9999 FEW015 M14/M16 Q1015 RMK 1ST015 A3000
RJCC 081630Z 00000KT 9999 FEW015 M15/M17 Q1016 RMK 1ST015 A3001
RJCC 081700Z VRB01KT 9999 FEW015 M17/M19 Q1016 RMK 1ST015 A3002
RJCC 081730Z VRB02KT 9999 FEW015 M16/M18 Q1016 RMK 1ST015 A3002
RJCC 081800Z 18003KT 160V240 9999 FEW015 M16/M18 Q1016 RMK 1ST015 A3002
RJCC 081830Z VRB01KT 9999 FEW015 M16/M18 Q1016 RMK 1ST015 A3003
RJCC 081900Z 00000KT 9999 FEW015 M17/M19 Q1016 RMK 1ST015 A3003
RJCC 081930Z 16002KT 9999 FEW015 M16/M18 Q1017 RMK 1ST015 A3003
RJCC 082000Z VRB02KT 9999 FEW015 M17/M19 Q1017 RMK 1ST015 A3005
RJCC 082030Z VRB01KT 9999 FEW015 M17/M19 Q1017 RMK 1ST015 A3004
RJCC 082100Z 00000KT 9999 FEW020 M17/M19 Q1017 RMK 1CU020 A3005
RJCC 082130Z VRB02KT 9999 FEW020 SCT060 M17/M19 Q1018 RMK 1CU020 3CU060 A3007
RJCC 082200Z 00000KT 9999 PRFG FEW020 M17/M19 Q1018 RMK 1CU020 A3007 FG NE
RJCC 082230Z 00000KT 9999 PRFG FEW020 SCT040 M17/M19 Q1018 RMK 1CU020 3CU040 A3008 FG NE
RJCC 082300Z VRB02KT 9999 FEW020 BKN050 M15/M18 Q1018 RMK 1CU020 5CU050 A3008
RJCC 082330Z VRB02KT 9999 FEW020 SCT035 BKN050 M11/M14 Q1018 RMK 1CU020 3CU035 5CU050 A3008
2018年12月09日00-24UTC 新千歳空港METAR -1

RJCC 090000Z VRB02KT 9999 FEW020 SCT050 BKN/// M10/M13 Q1019 RMK 1CU020 3CU050 A3009
RJCC 090030Z VRB01KT 9999 FEW020 BKN040 BKN/// M07/M11 Q1018 RMK 1CU020 6CU040 A3008
RJCC 090100Z VRB01KT 9999 FEW020 BKN050 M06/M10 Q1019 RMK 1CU020 7CU050 A3009
RJCC 090130Z VRB02KT 9999 FEW020 BKN040 M05/M11 Q1018 RMK 1CU020 7CU040 A3008
RJCC 090200Z 06004KT 9999 -SHSN FEW015 BKN040 M04/M13 Q1018 RMK 1ST015 7CU040 A3008
RJCC 090230Z 04006KT 010V100 9999 -SHSN FEW015 BKN040 M04/M13 Q1018 RMK 1ST015 7CU040 A3006
RJCC 090300Z 03006KT 8000 -SHSN FEW015 SCT030 BKN040 M04/M11 Q1017 RMK 1ST015 3CU030 7CU040 A3005
RJCC 090330Z 01004KT 3000 R01L/1000VP2000D R01R/1200VP2000D -SHSN FEW010 BKN020 M05/M10 Q1018 RMK 1ST010 7CU020 A3006 1500SE-S
RJCC 090334Z 01004KT 1400 R01L/0900VP2000D R01R/1000VP2000D -SHSN FEW005 BKN008 BKN012 M05/M09 Q1018 RMK 1ST005 5ST008 7ST012 A3006
RJCC 090337Z 36004KT 0900 R01L/0900V1800D R01R/1000VP2000D SHSN VV008 M05/M09 Q1017 RMK A3006
RJCC 090400Z VRB02KT 5000 R01L/P2000N R01R/P2000N -SHSN FEW005 SCT015 BKN035 M05/M08 Q1017 RMK 1ST005 3ST015 6CU035 A3005 9999S-W
RJCC 090430Z 06003KT 030V100 9999 -SHSN FEW015 SCT030 BKN050 M04/M08 Q1017 RMK 1ST015 3CU030 6CU050 A3005
RJCC 090500Z 06004KT 030V090 9999 -SHSN FEW015 SCT040 BKN050 M05/M09 Q1017 RMK 1ST015 4CU040 7CU050 A3005
RJCC 090530Z 03005KT 9999 -SHSN FEW015 SCT030 BKN040 M05/M08 Q1018 RMK 1ST015 3CU030 7CU040 A3006
RJCC 090600Z 02004KT 5000 -SHSN FEW015 BKN025 M05/M09 Q1018 RMK 1ST015 7CU025 A3007
RJCC 090625Z 01002KT 4900 R01L/1000VP2000D R01R/P2000N -SHSN FEW010 BKN015 M05/M09 Q1018 RMK 1ST010 7ST015 A3007
RJCC 090630Z 36002KT 0900 R01L/1000VP2000N R01R/2000N SHSN FEW007 BKN010 M05/M08 Q1018 RMK 1ST007 7ST010 A3007
-2
RJCC 090700Z 03006KT 1800 R01L/P2000N R01R/P2000N -SHSN FEW007 BKN015 BKN030 M06/M08 Q1018 RMK 1ST007 5ST015 7CU030 A3008
RJCC 090730Z 01006KT 2000 -SHSN FEW007 BKN010 BKN030 M06/M08 Q1018 RMK 1ST007 5ST010 7CU030 A3009
RJCC 090743Z 03005KT 2400 -SHSN FEW007 SCT015 BKN030 M06/M09 Q1018 RMK 1ST007 4ST015 7CU030 A3008
RJCC 090748Z 03005KT 3200 -SHSN FEW007 SCT015 BKN030 M06/M09 Q1018 RMK 1ST007 3ST015 7CU030 A3009
RJCC 090800Z 02004KT 340V040 6000 -SHSN FEW007 BKN030 M06/M09 Q1019 RMK 1ST007 7CU030 A3009
RJCC 090830Z VRB02KT 4900 -SHSN FEW007 SCT015 BKN030 M06/M09 Q1019 RMK 1ST007 4ST015 7CU030 A3009
RJCC 090900Z VRB02KT 3000 -SHSN FEW005 BKN025 M06/M08 Q1019 RMK 1ST005 7CU025 A3010
RJCC 090930Z 08002KT 3500 -SHSN FEW007 BKN025 M07/M08 Q1019 RMK 1ST007 7CU025 A3010
RJCC 091000Z 10003KT 7000 -SHSN FEW010 BKN030 M07/M08 Q1019 RMK 1ST010 7CU030 A3010
RJCC 091030Z 16003KT 6000 -SHSN FEW010 SCT020 BKN030 M07/M08 Q1019 RMK 1ST010 3CU020 7CU030 A3011
RJCC 091100Z 19004KT 160V250 8000 -SHSN FEW010 SCT025 BKN040 M06/M08 Q1019 RMK 1ST010 3CU025 7CU040 A3012
RJCC 091130Z 19005KT 140V230 9999 -SHSN FEW020 SCT050 M08/M10 Q1020 RMK 1CU020 4CU050 A3012
RJCC 091200Z 24004KT 120V270 9999 FEW020 SCT045 M07/M10 Q1020 RMK 1CU020 4CU045 A3012
RJCC 091230Z 26007KT 230V310 9999 FEW020 SCT060 M07/M11 Q1020 RMK 1CU020 3CU060 A3013
RJCC 091300Z 28008KT 250V310 9999 FEW020 SCT060 M08/M12 Q1020 RMK 1CU020 4CU060 A3014
RJCC 091330Z 26008KT 9999 FEW020 SCT070 M07/M11 Q1020 RMK 1CU020 4AC070 A3015
RJCC 091400Z VRB02KT 9999 FEW020 BKN070 M08/M12 Q1021 RMK 1CU020 6AC070 A3016
RJCC 091430Z 30004KT 260V350 9999 -SHSN FEW020 SCT050 BKN070 M07/M11 Q1021 RMK 1CU020 3CU050 6AC070 A3016
RJCC 091500Z 27005KT 9999 FEW020 BKN050 M07/M11 Q1021 RMK 1CU020 6CU050 A3017
RJCC 091530Z VRB01KT 9999 FEW020 SCT050 BKN070 M09/M12 Q1021 RMK 1CU020 3CU050 7AC070 A3016
-3
RJCC 091600Z VRB01KT 9999 FEW020 SCT060 M10/M12 Q1021 RMK 1CU020 4CU060 A3017
RJCC 091630Z VRB02KT 9999 FEW020 SCT060 BKN080 M10/M12 Q1021 RMK 1CU020 3CU060 6AC080 A3016
RJCC 091700Z 26008KT 9000 -SHSN FEW020 BKN040 M07/M10 Q1021 RMK 1CU020 6CU040 A3017
RJCC 091730Z 26007KT 7000 -SHSN FEW020 BKN040 M07/M10 Q1021 RMK 1CU020 7CU040 A3018
RJCC 091800Z 27006KT 230V320 7000 -SHSN FEW020 BKN040 M07/M09 Q1021 RMK 1CU020 7CU040 A3017
RJCC 091830Z 26006KT 4000 -SHSN FEW010 BKN020 M07/M09 Q1021 RMK 1ST010 7CU020 A3017 9999E
RJCC 091900Z 27005KT 8000 -SHSN FEW015 BKN040 M06/M09 Q1022 RMK 1ST015 7CU040 A3018
RJCC 091930Z 32005KT 9999 -SHSN FEW015 BKN035 M06/M09 Q1022 RMK 1ST015 7CU035 A3019
RJCC 092000Z 31005KT 9999 FEW015 BKN035 M06/M10 Q1022 RMK 1ST015 7CU035 A3019
RJCC 092030Z 04003KT 9999 -SHSN FEW015 BKN050 M08/M11 Q1023 RMK 1ST015 6CU050 A3021
RJCC 092100Z 03003KT 9999 FEW015 BKN050 M08/M11 Q1023 RMK 1ST015 6CU050 A3022
RJCC 092130Z VRB02KT 9999 FEW020 SCT050 M09/M11 Q1023 RMK 1CU020 3CU050 A3022
RJCC 092200Z VRB01KT 9999 FEW020 M10/M12 Q1023 RMK 1CU020 A3023
RJCC 092230Z 23004KT 160V320 9999 FEW020 M10/M12 Q1024 RMK 1CU020 A3024
RJCC 092300Z VRB02KT 9999 FEW020 M09/M12 Q1024 RMK 1CU020 A3025
RJCC 092330Z 09002KT 9999 FEW020 M08/M12 Q1024 RMK 1CU020 A3026
2018年12月10日00-24UTC 新千歳空港METAR -1

RJCC 100000Z VRB01KT 9999 FEW020 M07/M13 Q1025 RMK 1CU020 A3027
RJCC 100030Z 21003KT 120V280 9999 FEW020 M05/M13 Q1025 RMK 1CU020 A3028
RJCC 100043Z 31010KT 270V340 9999 FEW020 M05/M14 Q1025 RMK 1CU020 A3028
RJCC 100100Z 32008KT 290V350 9999 FEW020 M04/M13 Q1025 RMK 1CU020 A3029
RJCC 100130Z 33006KT 290V350 9999 FEW020 M04/M14 Q1025 RMK 1CU020 A3028
RJCC 100200Z 34006KT 310V020 9999 FEW020 M04/M14 Q1025 RMK 1CU020 A3028
RJCC 100230Z 02006KT 340V060 9999 FEW025 M04/M15 Q1025 RMK 1CU025 A3028
RJCC 100300Z 35007KT 300V010 9999 FEW025 M04/M15 Q1025 RMK 1CU025 A3028
RJCC 100330Z 33012KT 9999 FEW030 M03/M15 Q1025 RMK 1CU030 A3028
RJCC 100400Z 31013KT 9999 FEW030 M03/M15 Q1025 RMK 1CU030 A3027
RJCC 100430Z 36006KT 310V060 9999 FEW030 M03/M15 Q1025 RMK 1CU030 A3028
RJCC 100500Z 35005KT 250V050 9999 FEW030 SCT050 M03/M14 Q1025 RMK 1CU030 3CU050 A3028
RJCC 100530Z 34004KT 300V020 9999 FEW030 M03/M15 Q1025 RMK 1CU030 A3029
RJCC 100600Z 35007KT 9999 FEW030 M05/M15 Q1026 RMK 1CU030 A3031
RJCC 100630Z 01007KT 9999 FEW030 M06/M15 Q1026 RMK 1CU030 A3031
RJCC 100700Z 34002KT 9999 FEW020 M06/M16 Q1027 RMK 1CU020 A3033
RJCC 100730Z 35005KT 9999 FEW020 M06/M15 Q1027 RMK 1CU020 A3034
RJCC 100800Z 35007KT 9999 FEW020 M06/M13 Q1027 RMK 1CU020 A3034
RJCC 100830Z 04002KT 9999 FEW020 M07/M14 Q1027 RMK 1CU020 A3035
RJCC 100900Z 14003KT 090V200 9999 FEW020 M10/M15 Q1028 RMK 1CU020 A3036
RJCC 100930Z VRB02KT 9999 FEW020 M11/M15 Q1028 RMK 1CU020 A3036
RJCC 101000Z VRB02KT 9999 FEW020 M08/M12 Q1028 RMK 1CU020 A3037
RJCC 101030Z 19003KT 160V230 9999 FEW020 M12/M15 Q1028 RMK 1CU020 A3037
RJCC 101100Z VRB02KT 9999 FEW020 M13/M15 Q1028 RMK 1CU020 A3038
RJCC 101130Z VRB01KT 9999 FEW015 M14/M16 Q1028 RMK 1ST015 A3038
RJCC 101200Z VRB01KT 9999 FEW015 M13/M15 Q1028 RMK 1ST015 A3038
RJCC 101230Z VRB02KT 9999 FEW015 M15/M17 Q1029 RMK 1ST015 A3039
RJCC 101300Z VRB01KT 9999 FEW015 M14/M16 Q1028 RMK 1ST015 A3038
RJCC 101330Z VRB01KT 9999 FEW015 M15/M17 Q1028 RMK 1ST015 A3037
-2
RJCC 101400Z 20002KT 9999 FEW020 M16/M18 Q1028 RMK 1CU020 A3037
RJCC 101430Z 19001KT 9999 FEW020 M15/M18 Q1028 RMK 1CU020 A3037
RJCC 101500Z 22001KT 9999 FEW020 M18/M21 Q1028 RMK 1CU020 A3036
RJCC 101530Z 20001KT 9999 FEW020 M16/M18 Q1028 RMK 1CU020 A3036
RJCC 101600Z 15001KT 9999 FEW020 M16/M18 Q1028 RMK 1CU020 A3036
RJCC 101630Z VRB01KT 9999 FEW020 M16/M19 Q1028 RMK 1CU020 A3037
RJCC 101700Z 19001KT 9999 FEW020 M17/M19 Q1028 RMK 1CU020 A3037
RJCC 101730Z 16001KT 9999 FEW020 M18/M20 Q1028 RMK 1CU020 A3037
RJCC 101800Z 19002KT 9999 FEW020 M17/M20 Q1028 RMK 1CU020 A3036
RJCC 101830Z 20002KT 9999 FEW020 M17/M20 Q1028 RMK 1CU020 A3036
RJCC 101900Z VRB02KT 9999 FEW020 M18/M21 Q1028 RMK 1CU020 A3036
RJCC 101930Z 19002KT 9999 FEW020 M18/M20 Q1027 RMK 1CU020 A3035
RJCC 102000Z 16003KT 9999 FEW020 M17/M20 Q1027 RMK 1CU020 A3034
RJCC 102030Z VRB01KT 9999 FEW020 M18/M21 Q1027 RMK 1CU020 A3034
RJCC 102100Z VRB02KT 9999 FEW020 M17/M20 Q1027 RMK 1CU020 A3035
RJCC 102130Z 24001KT 9999 PRFG FEW020 M16/M19 Q1027 RMK 1CU020 A3035 FG NE
RJCC 102200Z 18003KT 9999 PRFG FEW025 M17/M20 Q1027 RMK 1CU025 A3035 FG NE
RJCC 102230Z VRB01KT 9999 PRFG FEW025 M17/M20 Q1028 RMK 1CU025 A3037 FG NE
RJCC 102300Z 19002KT 9999 PRFG FEW025 BKN050 M15/M18 Q1028 RMK 1CU025 6CU050 A3038 FG NE
RJCC 102330Z VRB02KT 9999 PRFG FEW025 SCT050 M13/M16 Q1028 RMK 1CU025 3CU050 A3038 FG NE

ログインすると、みんなのコメントがもっと見れるよ

mixiユーザー
ログインしてコメントしよう!

RJCCのMETAR・TAF 愛好会 更新情報

RJCCのMETAR・TAF 愛好会のメンバーはこんなコミュニティにも参加しています

星印の数は、共通して参加しているメンバーが多いほど増えます。

人気コミュニティランキング

mixiチケット決済